Time;durP1;ratioP1;P1;durP2;ratioP2;P2;SDS_P1;SDS_P2;PMS_P1;PMS_P2;Temp;Humidity;BMP_temperature;BMP_pressure;BME280_temperature;BME280_humidity;BME280_pressure;Samples;Min_cycle;Max_cycle;Signal;HPM_P1;HPM_P2
2023/04/07 00:01:53;;;;;;;15.30;12.10;;;;;;;4.49;88.62;100447.90;103675;280;38285;-72
2023/04/07 00:04:27;;;;;;;16.00;12.90;;;;;;;4.51;88.46;100445.80;103643;280;39459;-71
2023/04/07 00:07:01;;;;;;;15.90;12.90;;;;;;;4.52;88.32;100443.02;103677;280;39701;-73
2023/04/07 00:09:35;;;;;;;15.50;12.30;;;;;;;4.51;88.38;100446.31;103666;280;38470;-72
2023/04/07 00:12:10;;;;;;;15.70;12.20;;;;;;;4.52;88.48;100441.64;103696;280;38262;-71
2023/04/07 00:14:43;;;;;;;17.70;12.80;;;;;;;4.53;88.61;100441.63;103546;280;38485;-70
2023/04/07 00:17:17;;;;;;;15.90;12.10;;;;;;;4.55;88.55;100440.75;103643;280;39444;-74
2023/04/07 00:19:51;;;;;;;17.30;13.70;;;;;;;4.59;88.65;100435.86;103662;280;38539;-71
2023/04/07 00:22:25;;;;;;;17.40;13.60;;;;;;;4.63;88.81;100437.35;103641;280;38518;-71
2023/04/07 00:24:59;;;;;;;17.80;13.40;;;;;;;4.64;88.65;100433.72;103653;280;38821;-69
2023/04/07 00:27:33;;;;;;;18.70;13.60;;;;;;;4.65;88.57;100432.67;103681;280;38613;-71
2023/04/07 00:30:11;;;;;;;15.80;12.20;;;;;;;4.65;88.62;100429.89;103633;280;39535;-68
2023/04/07 00:32:45;;;;;;;18.80;14.20;;;;;;;4.65;88.64;100429.39;103671;279;39421;-69
2023/04/07 00:35:19;;;;;;;18.30;13.40;;;;;;;4.68;88.68;100426.06;103668;280;39941;-71
2023/04/07 00:37:53;;;;;;;18.30;14.10;;;;;;;4.72;88.73;100424.29;103661;280;39403;-72
2023/04/07 00:40:28;;;;;;;19.10;14.30;;;;;;;4.74;88.62;100423.05;103712;280;38247;-71
2023/04/07 00:43:02;;;;;;;21.20;15.80;;;;;;;4.73;88.62;100423.76;103659;279;39494;-71
2023/04/07 00:45:38;;;;;;;20.10;15.20;;;;;;;4.73;88.80;100425.83;103714;280;38798;-71
2023/04/07 00:48:12;;;;;;;18.60;14.30;;;;;;;4.76;88.76;100423.70;103641;268;38356;-71
2023/04/07 00:50:46;;;;;;;18.50;13.30;;;;;;;4.79;88.79;100420.74;103586;280;175683;-73
2023/04/07 00:53:20;;;;;;;17.90;13.70;;;;;;;4.81;88.77;100417.60;103643;280;38610;-71
2023/04/07 00:55:54;;;;;;;18.50;13.40;;;;;;;4.82;88.62;100420.67;103671;279;39671;-72
2023/04/07 00:58:28;;;;;;;18.00;15.00;;;;;;;4.86;88.76;100414.91;103649;280;38249;-71
2023/04/07 01:01:09;;;;;;;22.00;15.20;;;;;;;4.90;88.83;100416.62;103679;280;39027;-73
2023/04/07 01:03:53;;;;;;;17.80;14.10;;;;;;;4.90;88.70;100411.06;103717;269;39837;-71
2023/04/07 01:06:29;;;;;;;18.20;13.10;;;;;;;4.89;88.73;100411.42;103693;280;38732;-69
2023/04/07 01:09:06;;;;;;;20.20;13.70;;;;;;;4.91;88.67;100409.85;103552;280;175641;-71
2023/04/07 01:11:43;;;;;;;16.80;12.80;;;;;;;4.91;88.65;100411.05;103518;278;38368;-70
2023/04/07 01:14:17;;;;;;;17.20;13.20;;;;;;;4.94;88.71;100409.29;103640;280;38453;-70
2023/04/07 01:16:51;;;;;;;18.90;13.60;;;;;;;4.94;88.71;100405.65;103697;280;38252;-71
2023/04/07 01:19:34;;;;;;;20.60;14.80;;;;;;;4.96;88.89;100409.42;103679;280;38416;-71
2023/04/07 01:22:15;;;;;;;19.70;14.70;;;;;;;4.98;88.98;100409.06;103664;280;38941;-73
2023/04/07 01:25:38;;;;;;;18.00;13.50;;;;;;;4.99;88.96;100405.59;103675;280;40063;-72
2023/04/07 01:28:31;;;;;;;17.90;14.10;;;;;;;4.99;88.96;100401.62;103310;280;38801;-72
2023/04/07 01:31:05;;;;;;;20.70;14.20;;;;;;;5.04;89.15;100399.47;103683;280;39694;-72
2023/04/07 01:33:39;;;;;;;17.40;14.60;;;;;;;5.07;89.05;100402.87;103626;280;39950;-71
2023/04/07 01:36:13;;;;;;;19.90;14.90;;;;;;;5.09;89.04;100397.83;103250;280;597954;-72
2023/04/07 01:38:48;;;;;;;20.20;14.80;;;;;;;5.10;89.08;100401.27;103672;280;39566;-74
2023/04/07 01:41:22;;;;;;;21.10;15.00;;;;;;;5.09;89.13;100396.79;103661;280;38918;-72
2023/04/07 01:43:56;;;;;;;22.20;14.70;;;;;;;5.11;89.16;100396.23;103620;280;39585;-72
2023/04/07 01:46:30;;;;;;;20.00;14.40;;;;;;;5.14;89.08;100392.05;103649;280;39170;-71
2023/04/07 01:49:04;;;;;;;17.00;14.00;;;;;;;5.16;89.12;100392.36;103645;280;38532;-71
2023/04/07 01:51:38;;;;;;;18.50;15.00;;;;;;;5.18;89.10;100391.28;103685;280;38468;-73
2023/04/07 01:54:12;;;;;;;22.00;16.30;;;;;;;5.22;89.30;100390.71;103664;280;39716;-72
2023/04/07 01:56:46;;;;;;;20.70;16.50;;;;;;;5.25;89.25;100386.88;103691;280;39409;-72
2023/04/07 01:59:20;;;;;;;20.50;15.50;;;;;;;5.25;89.30;100392.40;103590;280;38371;-72
2023/04/07 02:01:54;;;;;;;19.70;14.40;;;;;;;5.27;89.30;100390.80;103624;279;39698;-71
2023/04/07 02:04:36;;;;;;;18.60;14.40;;;;;;;5.29;89.30;100387.16;103660;280;38474;-71
2023/04/07 02:07:18;;;;;;;19.20;14.00;;;;;;;5.31;89.25;100389.19;103670;280;39420;-73
2023/04/07 02:09:52;;;;;;;20.70;15.60;;;;;;;5.32;89.26;100387.43;103722;280;38265;-74
2023/04/07 02:12:27;;;;;;;19.50;15.70;;;;;;;5.36;89.41;100389.27;103080;280;911054;-72
2023/04/07 02:15:00;;;;;;;19.90;15.10;;;;;;;5.39;89.43;100390.95;103682;280;38720;-71
2023/04/07 02:17:36;;;;;;;20.40;16.00;;;;;;;5.43;89.47;100390.72;103684;280;39242;-71
2023/04/07 02:20:14;;;;;;;23.30;15.30;;;;;;;5.43;89.38;100387.27;103680;280;38940;-74
2023/04/07 02:22:48;;;;;;;20.70;14.90;;;;;;;5.46;89.40;100391.19;103654;280;38343;-73
2023/04/07 02:25:27;;;;;;;22.50;15.70;;;;;;;5.47;89.43;100389.27;103684;280;39422;-71
2023/04/07 02:28:02;;;;;;;20.50;15.90;;;;;;;5.49;89.58;100390.95;103696;280;38259;-72
2023/04/07 02:30:37;;;;;;;24.00;17.30;;;;;;;5.51;89.61;100390.25;103670;280;38680;-73
2023/04/07 02:33:11;;;;;;;22.60;16.30;;;;;;;5.50;89.65;100392.15;103665;280;38427;-70
2023/04/07 02:35:46;;;;;;;22.00;16.50;;;;;;;5.50;89.72;100383.51;103641;280;38653;-72
2023/04/07 02:38:20;;;;;;;22.00;16.50;;;;;;;5.50;89.84;100384.71;103667;280;38602;-69
2023/04/07 02:40:54;;;;;;;22.60;16.90;;;;;;;5.53;89.93;100380.17;103664;280;39667;-74
2023/04/07 02:43:28;;;;;;;24.20;17.30;;;;;;;5.59;90.06;100378.50;103639;280;38493;-73
2023/04/07 02:46:03;;;;;;;25.30;18.80;;;;;;;5.65;90.03;100378.05;103651;280;38803;-72
2023/04/07 02:48:37;;;;;;;25.00;17.40;;;;;;;5.67;89.92;100380.27;103682;279;38682;-72
2023/04/07 02:51:11;;;;;;;23.80;17.30;;;;;;;5.69;89.98;100381.77;103680;280;38863;-71
2023/04/07 02:53:45;;;;;;;24.40;18.20;;;;;;;5.69;89.83;100382.13;103509;280;38391;-70
2023/04/07 02:56:20;;;;;;;24.90;18.00;;;;;;;5.69;90.03;100378.51;103692;279;38424;-73
2023/04/07 02:58:54;;;;;;;26.10;18.30;;;;;;;5.72;90.09;100381.92;103641;280;38778;-73
2023/04/07 03:01:29;;;;;;;26.70;18.90;;;;;;;5.79;90.16;100383.86;103646;280;38749;-72
2023/04/07 03:04:03;;;;;;;24.80;19.40;;;;;;;5.83;90.22;100385.19;103429;280;176153;-72
2023/04/07 03:06:37;;;;;;;28.20;20.00;;;;;;;5.86;90.28;100385.46;103009;280;912770;-72
2023/04/07 03:09:11;;;;;;;26.40;19.50;;;;;;;5.88;90.03;100387.52;103641;280;38262;-71
2023/04/07 03:11:45;;;;;;;24.10;19.50;;;;;;;5.89;89.91;100384.72;103638;280;39319;-74
2023/04/07 03:14:19;;;;;;;26.40;18.50;;;;;;;5.90;89.80;100387.30;103644;280;39494;-74
2023/04/07 03:16:53;;;;;;;24.80;18.20;;;;;;;5.90;89.77;100389.38;103684;280;38290;-72
2023/04/07 03:19:27;;;;;;;24.70;17.80;;;;;;;5.90;89.81;100387.81;103654;280;39992;-70
2023/04/07 03:22:01;;;;;;;25.30;19.50;;;;;;;5.92;89.73;100391.43;103682;269;38276;-73
2023/04/07 03:24:35;;;;;;;26.80;20.70;;;;;;;5.91;89.78;100393.34;103640;280;39692;-74
2023/04/07 03:27:09;;;;;;;27.10;19.50;;;;;;;5.92;89.81;100386.76;103656;280;38797;-72
2023/04/07 03:29:43;;;;;;;26.90;18.90;;;;;;;5.92;89.80;100390.93;103520;280;39564;-72
2023/04/07 03:32:17;;;;;;;25.20;17.60;;;;;;;5.95;89.88;100389.14;103661;280;39467;-74
2023/04/07 03:34:53;;;;;;;26.90;19.30;;;;;;;5.99;89.97;100389.05;103671;280;38372;-71
2023/04/07 03:37:30;;;;;;;26.80;18.60;;;;;;;6.00;89.92;100388.86;103688;280;38623;-73
2023/04/07 03:40:05;;;;;;;26.80;19.00;;;;;;;6.01;90.06;100386.42;103670;280;39858;-72
2023/04/07 03:42:40;;;;;;;25.20;19.20;;;;;;;6.03;90.04;100385.52;103700;280;39627;-72
2023/04/07 03:45:17;;;;;;;28.30;20.70;;;;;;;6.04;89.99;100386.21;103672;280;38809;-74
2023/04/07 03:47:53;;;;;;;27.00;20.50;;;;;;;6.02;89.84;100380.86;103640;280;39474;-71
2023/04/07 03:50:27;;;;;;;29.90;20.00;;;;;;;6.02;90.04;100385.72;103689;280;38757;-72
2023/04/07 03:53:01;;;;;;;27.90;19.50;;;;;;;6.00;90.07;100385.05;103689;280;38254;-71
2023/04/07 03:55:35;;;;;;;28.90;19.80;;;;;;;6.02;90.14;100387.64;103677;280;39575;-75
2023/04/07 03:58:11;;;;;;;26.70;19.10;;;;;;;6.05;90.18;100387.04;103657;280;38390;-73
2023/04/07 04:00:45;;;;;;;28.90;19.60;;;;;;;6.09;90.25;100390.96;103639;280;39671;-73
2023/04/07 04:03:19;;;;;;;28.40;20.30;;;;;;;6.13;90.34;100386.54;103660;280;38407;-70
2023/04/07 04:05:53;;;;;;;30.10;21.80;;;;;;;6.13;90.23;100386.54;103698;280;38251;-72
2023/04/07 04:08:29;;;;;;;31.70;21.70;;;;;;;6.12;90.30;100387.08;103651;280;39505;-73
2023/04/07 04:11:03;;;;;;;28.00;20.90;;;;;;;6.15;90.38;100390.46;103678;280;38511;-72
2023/04/07 04:13:37;;;;;;;28.90;21.00;;;;;;;6.16;90.38;100386.48;103541;280;175551;-71
2023/04/07 04:16:11;;;;;;;29.00;19.70;;;;;;;6.18;90.27;100391.98;103677;280;38573;-72
2023/04/07 04:18:45;;;;;;;28.40;21.30;;;;;;;6.19;90.27;100390.55;103682;280;39856;-74
2023/04/07 04:21:19;;;;;;;29.00;19.80;;;;;;;6.20;90.08;100390.72;103645;280;39195;-74
2023/04/07 04:23:53;;;;;;;30.10;20.90;;;;;;;6.23;90.27;100395.87;103662;280;38295;-75
2023/04/07 04:26:28;;;;;;;28.10;20.40;;;;;;;6.28;90.35;100400.11;103662;280;38283;-74
2023/04/07 04:29:02;;;;;;;30.90;21.40;;;;;;;6.28;90.28;100399.06;103643;280;39934;-73
2023/04/07 04:31:36;;;;;;;28.10;20.90;;;;;;;6.28;90.23;100397.50;103536;280;172786;-71
2023/04/07 04:34:10;;;;;;;25.40;19.70;;;;;;;6.31;90.37;100398.66;103625;280;38243;-70
2023/04/07 04:36:44;;;;;;;25.30;18.80;;;;;;;6.33;90.31;100406.23;103684;280;39659;-74
2023/04/07 04:39:18;;;;;;;30.30;19.70;;;;;;;6.35;90.15;100409.48;103642;280;39013;-74
2023/04/07 04:41:52;;;;;;;23.20;18.20;;;;;;;6.38;90.58;100409.41;103724;280;38945;-70
2023/04/07 04:44:26;;;;;;;26.10;20.10;;;;;;;6.42;90.50;100410.91;103653;280;39722;-72
2023/04/07 04:47:00;;;;;;;28.10;20.10;;;;;;;6.44;90.42;100407.58;103689;280;38512;-74
2023/04/07 04:49:34;;;;;;;27.20;20.40;;;;;;;6.45;90.51;100411.54;103648;280;39429;-71
2023/04/07 04:52:09;;;;;;;26.50;19.20;;;;;;;6.45;90.58;100410.67;103664;280;38249;-73
2023/04/07 04:54:43;;;;;;;23.80;18.40;;;;;;;6.45;90.47;100412.41;103679;280;38264;-73
2023/04/07 04:57:17;;;;;;;23.90;19.00;;;;;;;6.47;90.46;100410.13;103672;280;38866;-74
2023/04/07 04:59:51;;;;;;;22.40;18.10;;;;;;;6.48;90.47;100412.00;103646;280;38676;-74
2023/04/07 05:02:25;;;;;;;23.40;18.00;;;;;;;6.49;90.50;100410.58;103541;280;39598;-72
2023/04/07 05:04:59;;;;;;;24.30;19.20;;;;;;;6.50;90.54;100410.23;103680;268;38252;-74
2023/04/07 05:07:33;;;;;;;29.50;20.00;;;;;;;6.51;90.52;100413.15;103648;280;38896;-70
2023/04/07 05:10:09;;;;;;;26.20;18.50;;;;;;;6.51;90.62;100409.84;103642;268;39871;-70
2023/04/07 05:12:43;;;;;;;24.80;18.60;;;;;;;6.52;90.66;100408.81;103501;282;38269;-72
2023/04/07 05:15:17;;;;;;;26.30;19.00;;;;;;;6.53;90.70;100408.60;103677;280;39739;-72
2023/04/07 05:17:51;;;;;;;27.30;19.40;;;;;;;6.56;90.78;100408.55;103669;280;39633;-72
2023/04/07 05:20:25;;;;;;;25.30;18.90;;;;;;;6.59;90.86;100411.58;103645;279;38544;-74
2023/04/07 05:22:59;;;;;;;24.90;18.60;;;;;;;6.63;90.92;100408.38;103537;282;38272;-74
2023/04/07 05:25:33;;;;;;;25.50;20.20;;;;;;;6.66;90.88;100417.52;103722;280;39373;-72
2023/04/07 05:28:08;;;;;;;25.10;20.40;;;;;;;6.70;91.06;100413.61;103681;280;39458;-74
2023/04/07 05:30:43;;;;;;;25.50;20.30;;;;;;;6.74;91.07;100414.91;103684;280;39398;-71
2023/04/07 05:33:17;;;;;;;24.10;17.60;;;;;;;6.80;91.13;100415.48;103620;280;38115;-73
2023/04/07 05:35:51;;;;;;;22.90;18.10;;;;;;;6.85;91.02;100418.67;103664;280;38835;-72
2023/04/07 05:38:25;;;;;;;25.70;19.40;;;;;;;6.88;91.05;100419.81;103635;280;38506;-70
2023/04/07 05:40:59;;;;;;;25.90;20.40;;;;;;;6.90;90.88;100421.33;103687;280;38497;-70
2023/04/07 05:43:33;;;;;;;27.80;20.00;;;;;;;6.91;90.82;100417.69;103678;280;38329;-71
2023/04/07 05:46:07;;;;;;;29.40;19.10;;;;;;;6.92;90.83;100413.46;103507;280;38365;-70
2023/04/07 05:48:41;;;;;;;25.80;18.90;;;;;;;6.95;90.91;100419.84;103551;280;188718;-70
2023/04/07 05:51:16;;;;;;;22.60;16.70;;;;;;;7.00;91.00;100417.98;103702;280;38450;-72
2023/04/07 05:53:50;;;;;;;23.70;18.30;;;;;;;7.08;91.10;100420.41;103642;279;39331;-75
2023/04/07 05:56:25;;;;;;;24.20;18.30;;;;;;;7.12;90.98;100414.77;103669;280;38875;-72
2023/04/07 05:59:01;;;;;;;29.70;18.50;;;;;;;7.16;91.00;100412.95;103661;280;39930;-72
2023/04/07 06:01:38;;;;;;;22.30;17.20;;;;;;;7.20;90.91;100415.80;103681;280;38978;-72
2023/04/07 06:04:12;;;;;;;18.60;16.60;;;;;;;7.21;90.87;100412.30;103479;282;39425;-72
2023/04/07 06:06:46;;;;;;;23.70;17.50;;;;;;;7.24;90.81;100413.09;103710;279;39402;-74
2023/04/07 06:09:20;;;;;;;23.60;18.10;;;;;;;7.25;90.61;100416.20;103692;280;39438;-71
2023/04/07 06:11:54;;;;;;;24.30;18.70;;;;;;;7.26;90.61;100415.65;103682;280;39414;-70
2023/04/07 06:14:28;;;;;;;25.70;17.10;;;;;;;7.28;90.54;100415.95;103630;280;38846;-70
2023/04/07 06:17:03;;;;;;;22.40;18.20;;;;;;;7.28;90.46;100418.73;103651;280;38455;-72
2023/04/07 06:19:38;;;;;;;21.40;16.10;;;;;;;7.27;90.33;100419.27;103646;280;38238;-72
2023/04/07 06:22:13;;;;;;;26.10;17.30;;;;;;;7.30;90.50;100416.11;103708;280;38438;-74
2023/04/07 06:24:47;;;;;;;22.30;17.40;;;;;;;7.34;90.45;100411.46;103676;280;38481;-74
2023/04/07 06:27:23;;;;;;;23.00;18.40;;;;;;;7.38;90.49;100409.11;103670;280;38728;-69
2023/04/07 06:29:57;;;;;;;22.50;17.20;;;;;;;7.39;90.34;100409.77;103706;280;38465;-70
2023/04/07 06:32:32;;;;;;;22.40;16.60;;;;;;;7.42;90.49;100411.27;103675;280;40475;-70
2023/04/07 06:35:07;;;;;;;23.30;16.60;;;;;;;7.51;90.70;100412.27;103662;280;39718;-70
2023/04/07 06:37:42;;;;;;;22.00;16.90;;;;;;;7.59;90.70;100407.20;103671;280;38279;-71
2023/04/07 06:40:16;;;;;;;20.70;16.60;;;;;;;7.67;90.67;100404.92;103677;280;38849;-72
2023/04/07 06:42:53;;;;;;;21.70;17.50;;;;;;;7.73;90.71;100405.27;103653;280;38515;-72
2023/04/07 06:45:29;;;;;;;23.60;17.70;;;;;;;7.80;90.72;100401.30;103713;280;38380;-73
2023/04/07 06:48:04;;;;;;;20.80;15.70;;;;;;;7.87;90.69;100397.98;103671;280;38263;-74
2023/04/07 06:50:38;;;;;;;20.20;16.00;;;;;;;7.95;90.52;100397.76;103679;280;38926;-71
2023/04/07 06:53:13;;;;;;;22.10;16.10;;;;;;;8.02;90.36;100399.48;103654;280;38268;-71
2023/04/07 06:55:47;;;;;;;23.00;16.10;;;;;;;8.13;90.60;100403.02;103687;280;39429;-73
2023/04/07 06:58:22;;;;;;;22.50;16.40;;;;;;;8.22;90.33;100405.36;103631;280;39171;-73
2023/04/07 07:00:56;;;;;;;24.80;17.40;;;;;;;8.27;90.22;100408.52;103685;280;38683;-73
2023/04/07 07:03:32;;;;;;;23.30;15.60;;;;;;;8.37;90.25;100408.45;103685;280;38230;-72
2023/04/07 07:06:06;;;;;;;19.80;15.90;;;;;;;8.46;90.04;100407.16;103702;280;38250;-72
2023/04/07 07:08:43;;;;;;;21.90;17.50;;;;;;;8.49;89.68;100406.39;103624;280;38632;-70
2023/04/07 07:11:16;;;;;;;24.70;17.30;;;;;;;8.48;89.51;100406.58;103640;280;38482;-71
2023/04/07 07:13:50;;;;;;;21.30;15.90;;;;;;;8.47;89.32;100405.91;103656;280;38506;-72
2023/04/07 07:16:25;;;;;;;19.40;14.90;;;;;;;8.48;89.02;100405.00;103742;280;38275;-74
2023/04/07 07:18:59;;;;;;;17.30;14.30;;;;;;;8.46;88.65;100401.77;103679;280;38249;-70
2023/04/07 07:21:33;;;;;;;19.70;15.50;;;;;;;8.46;88.74;100398.63;103721;280;38369;-71
2023/04/07 07:24:08;;;;;;;20.40;15.20;;;;;;;8.48;88.79;100396.66;103716;280;38274;-70
2023/04/07 07:26:43;;;;;;;16.70;14.70;;;;;;;8.49;88.98;100397.83;103731;280;39414;-69
2023/04/07 07:29:18;;;;;;;20.10;15.00;;;;;;;8.55;89.08;100399.93;103566;279;188669;-72
2023/04/07 07:31:52;;;;;;;19.40;14.40;;;;;;;8.63;89.10;100406.66;103669;280;39431;-72
2023/04/07 07:34:27;;;;;;;19.60;15.00;;;;;;;8.69;89.00;100412.20;103638;280;38246;-70
2023/04/07 07:37:01;;;;;;;21.00;15.30;;;;;;;8.79;89.20;100415.57;103683;280;38300;-72
2023/04/07 07:39:36;;;;;;;19.10;14.90;;;;;;;8.88;89.11;100415.84;103472;280;38386;-72
2023/04/07 07:42:12;;;;;;;21.80;15.50;;;;;;;8.97;89.02;100416.77;103668;280;38365;-73
2023/04/07 07:44:46;;;;;;;17.60;13.50;;;;;;;9.05;88.79;100408.86;103711;280;38231;-73
2023/04/07 07:47:22;;;;;;;18.50;14.10;;;;;;;9.10;88.41;100417.77;103724;280;39400;-70
2023/04/07 07:49:56;;;;;;;18.20;13.70;;;;;;;9.13;88.07;100417.48;103661;280;38237;-70
2023/04/07 07:52:30;;;;;;;18.40;14.60;;;;;;;9.15;87.95;100418.30;103687;280;39851;-71
2023/04/07 07:55:06;;;;;;;19.30;14.00;;;;;;;9.13;87.67;100418.71;103717;280;40104;-73
2023/04/07 07:57:40;;;;;;;16.20;13.10;;;;;;;9.14;87.74;100422.68;103577;280;189098;-72
2023/04/07 08:00:17;;;;;;;16.50;12.80;;;;;;;9.16;87.59;100423.48;103663;280;38640;-72
2023/04/07 08:02:52;;;;;;;17.00;13.30;;;;;;;9.15;87.26;100427.00;103657;280;38272;-72
2023/04/07 08:05:27;;;;;;;19.70;14.00;;;;;;;9.14;87.30;100424.25;103660;280;39538;-73
2023/04/07 08:08:01;;;;;;;15.00;12.60;;;;;;;9.13;87.28;100423.05;103651;280;38279;-73
2023/04/07 08:10:36;;;;;;;17.30;12.70;;;;;;;9.13;87.19;100426.39;103681;280;39404;-75
2023/04/07 08:13:09;;;;;;;14.60;12.70;;;;;;;9.15;87.26;100423.88;103661;280;38283;-74
2023/04/07 08:15:44;;;;;;;18.60;13.10;;;;;;;9.16;87.29;100426.96;103519;280;38601;-73
2023/04/07 08:18:18;;;;;;;17.80;13.50;;;;;;;9.14;87.29;100429.12;103681;280;38747;-73
2023/04/07 08:20:52;;;;;;;18.60;12.70;;;;;;;9.13;87.32;100428.80;103569;280;175830;-72
2023/04/07 08:23:26;;;;;;;17.40;11.70;;;;;;;9.14;87.24;100427.55;103533;282;37970;-69
2023/04/07 08:26:00;;;;;;;15.70;12.30;;;;;;;9.18;87.47;100427.42;103065;280;906823;-75
2023/04/07 08:28:35;;;;;;;18.70;13.40;;;;;;;9.26;87.64;100421.26;103519;280;41301;-73
2023/04/07 08:31:09;;;;;;;16.90;13.20;;;;;;;9.38;88.33;100422.77;103693;280;39735;-70
2023/04/07 08:33:43;;;;;;;17.70;12.60;;;;;;;9.53;88.25;100424.22;103651;280;38958;-72
2023/04/07 08:36:17;;;;;;;17.60;12.30;;;;;;;9.61;87.67;100427.29;103709;280;39568;-73
2023/04/07 08:38:51;;;;;;;16.20;12.10;;;;;;;9.63;87.38;100426.85;103680;280;38779;-74
2023/04/07 08:41:31;;;;;;;17.80;12.70;;;;;;;9.64;87.37;100426.46;103704;280;38739;-72
2023/04/07 08:44:05;;;;;;;17.10;12.90;;;;;;;9.67;87.28;100420.64;103689;280;39987;-72
2023/04/07 08:46:39;;;;;;;16.80;12.30;;;;;;;9.68;87.04;100424.40;103087;280;921116;-74
2023/04/07 08:49:14;;;;;;;17.00;12.50;;;;;;;9.73;87.16;100420.23;103525;282;38689;-73
2023/04/07 08:51:49;;;;;;;14.70;11.40;;;;;;;9.89;87.97;100411.88;103527;280;38363;-75
2023/04/07 08:54:23;;;;;;;13.40;11.80;;;;;;;10.11;87.56;100416.49;103644;280;38326;-75
2023/04/07 08:56:58;;;;;;;15.90;12.10;;;;;;;10.25;87.50;100418.11;103503;280;38235;-75
2023/04/07 08:59:32;;;;;;;19.20;14.30;;;;;;;10.44;87.30;100411.86;103678;280;38303;-73
2023/04/07 09:02:07;;;;;;;17.10;13.20;;;;;;;10.63;87.55;100412.90;103670;280;38482;-71
2023/04/07 09:04:42;;;;;;;17.90;12.70;;;;;;;10.82;86.71;100415.31;103683;280;38269;-70
2023/04/07 09:07:16;;;;;;;17.60;13.60;;;;;;;10.90;85.75;100417.97;103425;278;39429;-73
2023/04/07 09:09:51;;;;;;;15.30;12.50;;;;;;;10.94;85.05;100418.52;103696;280;39960;-73
2023/04/07 09:12:26;;;;;;;21.20;16.10;;;;;;;11.04;85.41;100414.11;103570;280;172548;-74
2023/04/07 09:15:05;;;;;;;13.60;11.70;;;;;;;11.10;84.62;100414.38;103770;280;38240;-74
2023/04/07 09:17:41;;;;;;;13.20;11.30;;;;;;;11.07;83.63;100415.39;103521;280;38377;-72
2023/04/07 09:20:18;;;;;;;16.10;11.60;;;;;;;10.98;83.91;100413.64;103683;279;39397;-71
2023/04/07 09:22:53;;;;;;;13.80;10.40;;;;;;;11.04;83.91;100408.34;103628;280;39648;-72
2023/04/07 09:25:28;;;;;;;15.40;11.50;;;;;;;11.07;83.91;100405.24;103531;280;38893;-74
2023/04/07 09:28:04;;;;;;;14.40;11.90;;;;;;;11.12;83.52;100407.65;103645;280;39463;-73
2023/04/07 09:30:40;;;;;;;14.00;11.60;;;;;;;11.21;84.21;100401.40;103668;280;38286;-72
2023/04/07 09:33:15;;;;;;;17.10;11.90;;;;;;;11.33;84.12;100401.58;103655;280;39251;-74
2023/04/07 09:35:56;;;;;;;15.30;10.90;;;;;;;11.45;83.49;100400.41;103226;280;677530;-73
2023/04/07 09:38:40;;;;;;;16.00;13.20;;;;;;;11.54;83.65;100396.21;103641;279;39638;-71
2023/04/07 09:41:16;;;;;;;15.60;12.10;;;;;;;11.62;83.19;100398.83;103684;280;39935;-72
2023/04/07 09:43:56;;;;;;;14.00;11.30;;;;;;;11.59;82.06;100400.70;103668;279;38464;-71
2023/04/07 09:46:31;;;;;;;15.20;11.10;;;;;;;11.46;81.84;100403.31;103686;280;38278;-71
2023/04/07 09:49:07;;;;;;;12.60;11.10;;;;;;;11.39;82.14;100406.77;103660;280;38723;-71
2023/04/07 09:51:42;;;;;;;14.60;11.40;;;;;;;11.40;82.48;100408.48;103579;280;38821;-72
2023/04/07 09:54:16;;;;;;;15.60;10.80;;;;;;;11.39;82.32;100406.75;103662;280;39168;-71
2023/04/07 09:56:50;;;;;;;15.30;10.90;;;;;;;11.37;82.41;100406.84;103672;279;38572;-71
2023/04/07 09:59:24;;;;;;;15.60;11.90;;;;;;;11.36;82.25;100406.72;103647;280;38535;-74
2023/04/07 10:01:58;;;;;;;15.70;11.20;;;;;;;11.40;82.70;100411.42;103698;279;39424;-73
2023/04/07 10:04:33;;;;;;;16.80;11.50;;;;;;;11.44;82.96;100406.40;103655;280;39987;-71
2023/04/07 10:07:07;;;;;;;13.30;11.60;;;;;;;11.50;83.05;100402.30;103654;279;38297;-73
2023/04/07 10:09:42;;;;;;;19.70;11.60;;;;;;;11.62;83.73;100410.18;103691;279;38552;-74
2023/04/07 10:12:16;;;;;;;14.10;11.00;;;;;;;11.71;83.10;100407.52;103664;280;38511;-73
2023/04/07 10:14:51;;;;;;;14.30;10.90;;;;;;;11.79;83.05;100406.16;103540;280;38261;-76
2023/04/07 10:17:25;;;;;;;13.30;10.60;;;;;;;11.95;83.28;100405.70;103722;280;38230;-73
2023/04/07 10:20:00;;;;;;;15.00;11.20;;;;;;;12.13;83.21;100402.96;103656;280;38516;-71
2023/04/07 10:22:36;;;;;;;16.60;11.20;;;;;;;12.28;82.37;100402.84;103719;280;39402;-70
2023/04/07 10:25:16;;;;;;;14.70;11.30;;;;;;;12.32;81.85;100405.27;103666;280;39435;-71
2023/04/07 10:27:55;;;;;;;17.20;13.50;;;;;;;12.33;81.68;100404.36;103512;280;39664;-73
2023/04/07 10:30:30;;;;;;;17.50;12.20;;;;;;;12.32;81.15;100410.70;103687;280;38799;-72
2023/04/07 10:33:04;;;;;;;15.00;11.50;;;;;;;12.21;80.32;100408.55;103639;280;38286;-75
2023/04/07 10:36:06;;;;;;;19.80;12.80;;;;;;;12.11;80.67;100409.53;103680;280;38509;-76
2023/04/07 10:38:40;;;;;;;18.30;12.70;;;;;;;12.09;80.92;100414.52;103541;281;38452;-75
2023/04/07 10:41:37;;;;;;;17.50;12.60;;;;;;;12.08;81.08;100419.08;103719;272;38227;-76
2023/04/07 10:44:32;;;;;;;17.60;12.20;;;;;;;12.11;81.55;100418.25;103567;280;38981;-76
2023/04/07 10:47:10;;;;;;;17.80;12.70;;;;;;;12.09;81.21;100420.09;103783;280;38726;-74
2023/04/07 10:49:58;;;;;;;22.40;15.00;;;;;;;12.07;81.41;100423.34;103617;281;40890;-72
2023/04/07 10:52:32;;;;;;;22.60;15.50;;;;;;;12.09;81.60;100423.95;103727;280;39401;-73
2023/04/07 10:55:34;;;;;;;29.80;18.40;;;;;;;12.12;81.58;100426.45;103718;280;38473;-75
2023/04/07 10:58:33;;;;;;;16.40;12.20;;;;;;;12.13;81.42;100426.76;103728;280;39383;-74
2023/04/07 11:01:34;;;;;;;15.70;11.20;;;;;;;12.13;81.51;100424.31;103518;280;38798;-76
2023/04/07 11:04:08;;;;;;;15.50;11.00;;;;;;;12.14;81.57;100425.31;103562;280;174928;-74
2023/04/07 11:06:51;;;;;;;15.70;10.70;;;;;;;12.15;81.67;100425.41;103754;280;38273;-73
2023/04/07 11:09:26;;;;;;;13.30;10.80;;;;;;;12.17;81.77;100426.94;103734;280;40106;-75
2023/04/07 11:12:00;;;;;;;12.90;10.80;;;;;;;12.17;81.63;100428.70;103694;280;38379;-73
2023/04/07 11:14:36;;;;;;;12.40;10.20;;;;;;;12.13;81.33;100430.07;103712;280;38229;-74
2023/04/07 11:17:10;;;;;;;12.20;9.70;;;;;;;12.12;81.59;100427.67;103640;280;38286;-74
2023/04/07 11:19:57;;;;;;;14.10;9.70;;;;;;;12.17;81.73;100427.79;103744;280;38412;-74
2023/04/07 11:22:33;;;;;;;12.20;10.20;;;;;;;12.24;81.71;100427.34;103691;280;39476;-74
2023/04/07 11:25:26;;;;;;;15.60;11.00;;;;;;;12.27;81.76;100424.92;103673;280;40097;-72
2023/04/07 11:28:01;;;;;;;14.70;11.30;;;;;;;12.37;82.08;100425.17;103697;280;38250;-75
2023/04/07 11:30:36;;;;;;;11.40;9.80;;;;;;;12.39;81.29;100426.65;103680;280;39479;-76
2023/04/07 11:33:12;;;;;;;13.00;10.40;;;;;;;12.38;81.36;100429.48;103669;280;39749;-70
2023/04/07 11:35:56;;;;;;;13.00;10.10;;;;;;;12.44;81.54;100426.44;103682;280;39444;-71
2023/04/07 11:38:35;;;;;;;13.70;10.70;;;;;;;12.49;81.47;100425.86;103703;280;38428;-73
2023/04/07 11:41:16;;;;;;;12.20;10.40;;;;;;;12.48;81.27;100422.58;103528;281;39550;-71
2023/04/07 11:43:51;;;;;;;13.70;10.30;;;;;;;12.46;81.23;100421.45;103705;280;38261;-73
2023/04/07 11:46:25;;;;;;;12.70;9.50;;;;;;;12.43;81.00;100424.23;103687;280;38357;-72
2023/04/07 11:49:15;;;;;;;10.50;9.40;;;;;;;12.36;80.94;100423.29;103700;280;38281;-71
2023/04/07 11:52:02;;;;;;;12.70;9.70;;;;;;;12.28;80.92;100424.86;103661;280;39641;-72
2023/04/07 11:54:46;;;;;;;12.60;9.90;;;;;;;12.19;81.03;100429.97;103503;279;38238;-71